sensor_id;sensor_type;location;lat;lon;timestamp;pressure;altitude;pressure_sealevel;temperature
70668;BMP280;58242;51.250;-1.118;2023-07-30T00:01:29;99643.13;;;22.92
70668;BMP280;58242;51.250;-1.118;2023-07-30T00:03:54;99642.78;;;22.90
70668;BMP280;58242;51.250;-1.118;2023-07-30T00:06:20;99639.00;;;22.84
70668;BMP280;58242;51.250;-1.118;2023-07-30T00:08:45;99637.44;;;22.83
70668;BMP280;58242;51.250;-1.118;2023-07-30T00:11:10;99635.91;;;22.82
70668;BMP280;58242;51.250;-1.118;2023-07-30T00:13:36;99645.63;;;22.83
70668;BMP280;58242;51.250;-1.118;2023-07-30T00:16:01;99630.44;;;22.82
70668;BMP280;58242;51.250;-1.118;2023-07-30T00:18:26;99641.00;;;22.80
70668;BMP280;58242;51.250;-1.118;2023-07-30T00:20:52;99638.31;;;22.77
70668;BMP280;58242;51.250;-1.118;2023-07-30T00:23:17;99631.41;;;22.72
70668;BMP280;58242;51.250;-1.118;2023-07-30T00:25:42;99631.84;;;22.67
70668;BMP280;58242;51.250;-1.118;2023-07-30T00:28:08;99629.59;;;22.63
70668;BMP280;58242;51.250;-1.118;2023-07-30T00:30:33;99634.31;;;22.59
70668;BMP280;58242;51.250;-1.118;2023-07-30T00:32:58;99633.97;;;22.57
70668;BMP280;58242;51.250;-1.118;2023-07-30T00:35:23;99638.25;;;22.54
70668;BMP280;58242;51.250;-1.118;2023-07-30T00:37:49;99624.66;;;22.54
70668;BMP280;58242;51.250;-1.118;2023-07-30T00:40:14;99628.56;;;22.53
70668;BMP280;58242;51.250;-1.118;2023-07-30T00:42:39;99627.03;;;22.52
70668;BMP280;58242;51.250;-1.118;2023-07-30T00:45:05;99624.31;;;22.52
70668;BMP280;58242;51.250;-1.118;2023-07-30T00:47:31;99625.44;;;22.51
70668;BMP280;58242;51.250;-1.118;2023-07-30T00:49:57;99611.47;;;22.49
70668;BMP280;58242;51.250;-1.118;2023-07-30T00:52:23;99620.44;;;22.50
70668;BMP280;58242;51.250;-1.118;2023-07-30T00:54:49;99619.66;;;22.49
70668;BMP280;58242;51.250;-1.118;2023-07-30T00:57:18;99617.31;;;22.48
70668;BMP280;58242;51.250;-1.118;2023-07-30T00:59:45;99615.78;;;22.47
70668;BMP280;58242;51.250;-1.118;2023-07-30T01:02:11;99615.44;;;22.45
70668;BMP280;58242;51.250;-1.118;2023-07-30T01:04:37;99610.81;;;22.42
70668;BMP280;58242;51.250;-1.118;2023-07-30T01:07:04;99618.66;;;22.37
70668;BMP280;58242;51.250;-1.118;2023-07-30T01:09:31;99617.59;;;22.31
70668;BMP280;58242;51.250;-1.118;2023-07-30T01:11:56;99633.22;;;22.24
70668;BMP280;58242;51.250;-1.118;2023-07-30T01:14:22;99633.31;;;22.17
70668;BMP280;58242;51.250;-1.118;2023-07-30T01:16:48;99627.97;;;22.10
70668;BMP280;58242;51.250;-1.118;2023-07-30T01:19:14;99635.41;;;22.06
70668;BMP280;58242;51.250;-1.118;2023-07-30T01:21:39;99639.31;;;22.05
70668;BMP280;58242;51.250;-1.118;2023-07-30T01:24:04;99639.72;;;22.04
70668;BMP280;58242;51.250;-1.118;2023-07-30T01:26:55;99642.06;;;22.02
70668;BMP280;58242;51.250;-1.118;2023-07-30T01:29:53;99637.84;;;21.97
70668;BMP280;58242;51.250;-1.118;2023-07-30T01:32:25;99645.22;;;22.00
70668;BMP280;58242;51.250;-1.118;2023-07-30T01:34:52;99641.69;;;22.03
70668;BMP280;58242;51.250;-1.118;2023-07-30T01:37:18;99642.06;;;22.02
70668;BMP280;58242;51.250;-1.118;2023-07-30T01:39:45;99641.69;;;22.03
70668;BMP280;58242;51.250;-1.118;2023-07-30T01:42:12;99649.84;;;22.03
70668;BMP280;58242;51.250;-1.118;2023-07-30T01:44:38;99654.47;;;22.06
70668;BMP280;58242;51.250;-1.118;2023-07-30T01:47:03;99656.00;;;22.07
70668;BMP280;58242;51.250;-1.118;2023-07-30T01:49:28;99646.69;;;22.08
70668;BMP280;58242;51.250;-1.118;2023-07-30T01:51:54;99657.13;;;22.10
70668;BMP280;58242;51.250;-1.118;2023-07-30T01:54:19;99658.31;;;22.09
70668;BMP280;58242;51.250;-1.118;2023-07-30T01:56:44;99656.00;;;22.07
70668;BMP280;58242;51.250;-1.118;2023-07-30T01:59:09;99652.91;;;22.05
70668;BMP280;58242;51.250;-1.118;2023-07-30T02:01:35;99653.72;;;22.02
70668;BMP280;58242;51.250;-1.118;2023-07-30T02:04:00;99649.13;;;21.99
70668;BMP280;58242;51.250;-1.118;2023-07-30T02:06:25;99651.44;;;21.97
70668;BMP280;58242;51.250;-1.118;2023-07-30T02:08:50;99648.38;;;21.95
70668;BMP280;58242;51.250;-1.118;2023-07-30T02:11:16;99669.81;;;21.90
70668;BMP280;58242;51.250;-1.118;2023-07-30T02:13:41;99664.06;;;21.85
70668;BMP280;58242;51.250;-1.118;2023-07-30T02:16:07;99665.28;;;21.80
70668;BMP280;58242;51.250;-1.118;2023-07-30T02:18:33;99670.34;;;21.75
70668;BMP280;58242;51.250;-1.118;2023-07-30T02:20:58;99675.06;;;21.71
70668;BMP280;58242;51.250;-1.118;2023-07-30T02:23:23;99681.72;;;21.67
70668;BMP280;58242;51.250;-1.118;2023-07-30T02:25:49;99668.19;;;21.60
70668;BMP280;58242;51.250;-1.118;2023-07-30T02:28:14;99677.94;;;21.58
70668;BMP280;58242;51.250;-1.118;2023-07-30T02:30:39;99677.97;;;21.54
70668;BMP280;58242;51.250;-1.118;2023-07-30T02:33:04;99676.84;;;21.52
70668;BMP280;58242;51.250;-1.118;2023-07-30T02:35:30;99675.28;;;21.51
70668;BMP280;58242;51.250;-1.118;2023-07-30T02:37:55;99677.63;;;21.49
70668;BMP280;58242;51.250;-1.118;2023-07-30T02:40:20;99674.53;;;21.47
70668;BMP280;58242;51.250;-1.118;2023-07-30T02:42:46;99679.25;;;21.43
70668;BMP280;58242;51.250;-1.118;2023-07-30T02:45:11;99673.88;;;21.36
70668;BMP280;58242;51.250;-1.118;2023-07-30T02:47:36;99671.63;;;21.28
70668;BMP280;58242;51.250;-1.118;2023-07-30T02:50:03;99667.03;;;21.22
70668;BMP280;58242;51.250;-1.118;2023-07-30T02:52:29;99660.09;;;21.14
70668;BMP280;58242;51.250;-1.118;2023-07-30T02:54:54;99665.56;;;21.07
70668;BMP280;58242;51.250;-1.118;2023-07-30T02:57:19;99668.31;;;21.00
70668;BMP280;58242;51.250;-1.118;2023-07-30T02:59:45;99669.94;;;20.94
70668;BMP280;58242;51.250;-1.118;2023-07-30T03:02:10;99672.72;;;20.88
70668;BMP280;58242;51.250;-1.118;2023-07-30T03:04:35;99662.25;;;20.83
70668;BMP280;58242;51.250;-1.118;2023-07-30T03:07:01;99666.56;;;20.77
70668;BMP280;58242;51.250;-1.118;2023-07-30T03:09:27;99662.34;;;20.73
70668;BMP280;58242;51.250;-1.118;2023-07-30T03:11:53;99658.44;;;20.70
70668;BMP280;58242;51.250;-1.118;2023-07-30T03:14:18;99669.72;;;20.69
70668;BMP280;58242;51.250;-1.118;2023-07-30T03:16:47;99672.03;;;20.70
70668;BMP280;58242;51.250;-1.118;2023-07-30T03:19:13;99668.94;;;20.72
70668;BMP280;58242;51.250;-1.118;2023-07-30T03:21:38;99661.16;;;20.70
70668;BMP280;58242;51.250;-1.118;2023-07-30T03:24:04;99659.63;;;20.69
70668;BMP280;58242;51.250;-1.118;2023-07-30T03:26:29;99670.09;;;20.71
70668;BMP280;58242;51.250;-1.118;2023-07-30T03:28:54;99668.94;;;20.72
70668;BMP280;58242;51.250;-1.118;2023-07-30T03:31:20;99671.97;;;20.77
70668;BMP280;58242;51.250;-1.118;2023-07-30T03:33:45;99682.84;;;20.77
70668;BMP280;58242;51.250;-1.118;2023-07-30T03:36:11;99681.31;;;20.76
70668;BMP280;58242;51.250;-1.118;2023-07-30T03:38:36;99680.13;;;20.77
70668;BMP280;58242;51.250;-1.118;2023-07-30T03:41:04;99681.28;;;20.79
70668;BMP280;58242;51.250;-1.118;2023-07-30T03:43:29;99682.44;;;20.82
70668;BMP280;58242;51.250;-1.118;2023-07-30T03:45:55;99680.50;;;20.82
70668;BMP280;58242;51.250;-1.118;2023-07-30T03:48:20;99683.56;;;20.84
70668;BMP280;58242;51.250;-1.118;2023-07-30T03:50:45;99694.06;;;20.86
70668;BMP280;58242;51.250;-1.118;2023-07-30T03:53:11;99691.72;;;20.88
70668;BMP280;58242;51.250;-1.118;2023-07-30T03:55:36;99685.09;;;20.89
70668;BMP280;58242;51.250;-1.118;2023-07-30T03:58:01;99694.03;;;20.89
70668;BMP280;58242;51.250;-1.118;2023-07-30T04:00:27;99678.13;;;20.88
70668;BMP280;58242;51.250;-1.118;2023-07-30T04:02:53;99684.72;;;20.87
70668;BMP280;58242;51.250;-1.118;2023-07-30T04:05:18;99685.91;;;20.86
70668;BMP280;58242;51.250;-1.118;2023-07-30T04:07:44;99681.63;;;20.85
70668;BMP280;58242;51.250;-1.118;2023-07-30T04:10:09;99688.66;;;20.82
70668;BMP280;58242;51.250;-1.118;2023-07-30T04:12:34;99684.78;;;20.80
70668;BMP280;58242;51.250;-1.118;2023-07-30T04:15:00;99682.09;;;20.73
70668;BMP280;58242;51.250;-1.118;2023-07-30T04:17:25;99689.13;;;20.67
70668;BMP280;58242;51.250;-1.118;2023-07-30T04:19:50;99689.19;;;20.60
70668;BMP280;58242;51.250;-1.118;2023-07-30T04:22:16;99693.47;;;20.55
70668;BMP280;58242;51.250;-1.118;2023-07-30T04:24:41;99690.78;;;20.48
70668;BMP280;58242;51.250;-1.118;2023-07-30T04:27:06;99693.16;;;20.42
70668;BMP280;58242;51.250;-1.118;2023-07-30T04:29:32;99698.22;;;20.37
70668;BMP280;58242;51.250;-1.118;2023-07-30T04:31:57;99709.50;;;20.32
70668;BMP280;58242;51.250;-1.118;2023-07-30T04:34:22;99710.25;;;20.29
70668;BMP280;58242;51.250;-1.118;2023-07-30T04:36:47;99699.78;;;20.24
70668;BMP280;58242;51.250;-1.118;2023-07-30T04:39:13;99706.00;;;20.21
70668;BMP280;58242;51.250;-1.118;2023-07-30T04:41:38;99704.09;;;20.19
70668;BMP280;58242;51.250;-1.118;2023-07-30T04:44:04;99700.63;;;20.15
70668;BMP280;58242;51.250;-1.118;2023-07-30T04:46:29;99704.91;;;20.12
70668;BMP280;58242;51.250;-1.118;2023-07-30T04:48:55;99711.88;;;20.10
70668;BMP280;58242;51.250;-1.118;2023-07-30T04:51:20;99713.44;;;20.07
70668;BMP280;58242;51.250;-1.118;2023-07-30T04:53:45;99706.88;;;20.05
70668;BMP280;58242;51.250;-1.118;2023-07-30T04:56:11;99710.75;;;20.04
70668;BMP280;58242;51.250;-1.118;2023-07-30T04:58:36;99722.75;;;20.03
70668;BMP280;58242;51.250;-1.118;2023-07-30T05:01:01;99722.41;;;20.01
70668;BMP280;58242;51.250;-1.118;2023-07-30T05:03:26;99723.56;;;20.00
70668;BMP280;58242;51.250;-1.118;2023-07-30T05:05:53;99728.19;;;20.00
70668;BMP280;58242;51.250;-1.118;2023-07-30T05:08:18;99724.72;;;19.99
70668;BMP280;58242;51.250;-1.118;2023-07-30T05:10:43;99724.34;;;20.01
70668;BMP280;58242;51.250;-1.118;2023-07-30T05:13:09;99724.31;;;20.04
70668;BMP280;58242;51.250;-1.118;2023-07-30T05:15:34;99729.31;;;20.09
70668;BMP280;58242;51.250;-1.118;2023-07-30T05:17:59;99720.41;;;20.12
70668;BMP280;58242;51.250;-1.118;2023-07-30T05:20:24;99712.63;;;20.14
70668;BMP280;58242;51.250;-1.118;2023-07-30T05:22:50;99722.69;;;20.17
70668;BMP280;58242;51.250;-1.118;2023-07-30T05:25:15;99716.88;;;20.21
70668;BMP280;58242;51.250;-1.118;2023-07-30T05:27:40;99728.88;;;20.27
70668;BMP280;58242;51.250;-1.118;2023-07-30T05:30:06;99731.59;;;20.34
70668;BMP280;58242;51.250;-1.118;2023-07-30T05:32:31;99735.06;;;20.41
70668;BMP280;58242;51.250;-1.118;2023-07-30T05:34:57;99736.97;;;20.48
70668;BMP280;58242;51.250;-1.118;2023-07-30T05:37:22;99735.00;;;20.52
70668;BMP280;58242;51.250;-1.118;2023-07-30T05:39:48;99726.44;;;20.56
70668;BMP280;58242;51.250;-1.118;2023-07-30T05:42:13;99738.06;;;20.60
70668;BMP280;58242;51.250;-1.118;2023-07-30T05:44:38;99741.53;;;20.64
70668;BMP280;58242;51.250;-1.118;2023-07-30T05:47:04;99748.88;;;20.67
70668;BMP280;58242;51.250;-1.118;2023-07-30T05:49:29;99749.66;;;20.71
70668;BMP280;58242;51.250;-1.118;2023-07-30T05:51:55;99736.44;;;20.73
70668;BMP280;58242;51.250;-1.118;2023-07-30T05:54:20;99729.47;;;20.72
70668;BMP280;58242;51.250;-1.118;2023-07-30T05:56:45;99741.84;;;20.73
70668;BMP280;58242;51.250;-1.118;2023-07-30T05:59:11;99732.53;;;20.74
70668;BMP280;58242;51.250;-1.118;2023-07-30T06:01:36;99746.53;;;20.76
70668;BMP280;58242;51.250;-1.118;2023-07-30T06:04:01;99743.81;;;20.76
70668;BMP280;58242;51.250;-1.118;2023-07-30T06:06:26;99750.00;;;20.76
70668;BMP280;58242;51.250;-1.118;2023-07-30T06:08:55;99749.22;;;20.79
70668;BMP280;58242;51.250;-1.118;2023-07-30T06:11:21;99748.78;;;20.81
70668;BMP280;58242;51.250;-1.118;2023-07-30T06:13:46;99745.66;;;20.86
70668;BMP280;58242;51.250;-1.118;2023-07-30T06:16:12;99750.31;;;20.89
70668;BMP280;58242;51.250;-1.118;2023-07-30T06:18:38;99750.28;;;20.92
70668;BMP280;58242;51.250;-1.118;2023-07-30T06:21:03;99751.03;;;20.96
70668;BMP280;58242;51.250;-1.118;2023-07-30T06:23:28;99752.53;;;21.04
70668;BMP280;58242;51.250;-1.118;2023-07-30T06:25:53;99744.00;;;21.08
70668;BMP280;58242;51.250;-1.118;2023-07-30T06:28:19;99754.03;;;21.15
70668;BMP280;58242;51.250;-1.118;2023-07-30T06:30:44;99752.81;;;21.23
70668;BMP280;58242;51.250;-1.118;2023-07-30T06:33:09;99750.47;;;21.28
70668;BMP280;58242;51.250;-1.118;2023-07-30T06:35:35;99763.59;;;21.36
70668;BMP280;58242;51.250;-1.118;2023-07-30T06:38:00;99762.75;;;21.46
70668;BMP280;58242;51.250;-1.118;2023-07-30T06:40:25;99763.44;;;21.53
70668;BMP280;58242;51.250;-1.118;2023-07-30T06:42:51;99764.94;;;21.61
70668;BMP280;58242;51.250;-1.118;2023-07-30T06:45:16;99762.94;;;21.68
70668;BMP280;58242;51.250;-1.118;2023-07-30T06:47:41;99748.09;;;21.76
70668;BMP280;58242;51.250;-1.118;2023-07-30T06:50:07;99759.66;;;21.87
70668;BMP280;58242;51.250;-1.118;2023-07-30T06:52:34;99772.78;;;21.98
70668;BMP280;58242;51.250;-1.118;2023-07-30T06:55:00;99762.13;;;22.11
70668;BMP280;58242;51.250;-1.118;2023-07-30T06:57:25;99759.69;;;22.23
70668;BMP280;58242;51.250;-1.118;2023-07-30T06:59:50;99768.44;;;22.37
70668;BMP280;58242;51.250;-1.118;2023-07-30T07:02:15;99773.34;;;22.52
70668;BMP280;58242;51.250;-1.118;2023-07-30T07:04:41;99761.03;;;22.70
70668;BMP280;58242;51.250;-1.118;2023-07-30T07:07:06;99770.91;;;22.90
70668;BMP280;58242;51.250;-1.118;2023-07-30T07:09:31;99769.28;;;23.18
70668;BMP280;58242;51.250;-1.118;2023-07-30T07:11:57;99766.63;;;23.66
70668;BMP280;58242;51.250;-1.118;2023-07-30T07:14:23;99761.28;;;24.23
70668;BMP280;58242;51.250;-1.118;2023-07-30T07:16:48;99753.34;;;24.85
70668;BMP280;58242;51.250;-1.118;2023-07-30T07:19:13;99767.94;;;25.48
70668;BMP280;58242;51.250;-1.118;2023-07-30T07:21:39;99773.72;;;25.96
70668;BMP280;58242;51.250;-1.118;2023-07-30T07:24:04;99765.50;;;26.24
70668;BMP280;58242;51.250;-1.118;2023-07-30T07:26:29;99772.66;;;26.49
70668;BMP280;58242;51.250;-1.118;2023-07-30T07:28:55;99764.84;;;26.88
70668;BMP280;58242;51.250;-1.118;2023-07-30T07:31:21;99773.34;;;27.05
70668;BMP280;58242;51.250;-1.118;2023-07-30T07:33:46;99784.00;;;27.40
70668;BMP280;58242;51.250;-1.118;2023-07-30T07:36:11;99779.44;;;27.94
70668;BMP280;58242;51.250;-1.118;2023-07-30T07:38:39;99778.44;;;28.54
70668;BMP280;58242;51.250;-1.118;2023-07-30T07:41:04;99778.41;;;29.17
70668;BMP280;58242;51.250;-1.118;2023-07-30T07:43:29;99777.22;;;29.65
70668;BMP280;58242;51.250;-1.118;2023-07-30T07:45:55;99777.03;;;30.07
70668;BMP280;58242;51.250;-1.118;2023-07-30T07:48:20;99790.84;;;30.51
70668;BMP280;58242;51.250;-1.118;2023-07-30T07:50:46;99794.78;;;30.93
70668;BMP280;58242;51.250;-1.118;2023-07-30T07:53:11;99803.34;;;31.13
70668;BMP280;58242;51.250;-1.118;2023-07-30T07:55:36;99798.31;;;30.94
70668;BMP280;58242;51.250;-1.118;2023-07-30T07:58:02;99799.84;;;30.77
70668;BMP280;58242;51.250;-1.118;2023-07-30T08:00:27;99802.50;;;30.63
70668;BMP280;58242;51.250;-1.118;2023-07-30T08:02:52;99812.28;;;30.73
70668;BMP280;58242;51.250;-1.118;2023-07-30T08:05:18;99808.44;;;30.53
70668;BMP280;58242;51.250;-1.118;2023-07-30T08:07:46;99810.00;;;30.45
70668;BMP280;58242;51.250;-1.118;2023-07-30T08:10:11;99813.03;;;30.73
70668;BMP280;58242;51.250;-1.118;2023-07-30T08:12:37;99805.44;;;31.18
70668;BMP280;58242;51.250;-1.118;2023-07-30T08:15:02;99815.06;;;31.71
70668;BMP280;58242;51.250;-1.118;2023-07-30T08:17:28;99815.25;;;32.22
70668;BMP280;58242;51.250;-1.118;2023-07-30T08:19:54;99794.22;;;32.16
70668;BMP280;58242;51.250;-1.118;2023-07-30T08:22:19;99801.19;;;32.34
70668;BMP280;58242;51.250;-1.118;2023-07-30T08:24:44;99802.91;;;32.83
70668;BMP280;58242;51.250;-1.118;2023-07-30T08:27:10;99807.31;;;33.03
70668;BMP280;58242;51.250;-1.118;2023-07-30T08:29:35;99800.94;;;32.98
70668;BMP280;58242;51.250;-1.118;2023-07-30T08:32:00;99807.41;;;32.95
70668;BMP280;58242;51.250;-1.118;2023-07-30T08:34:26;99795.38;;;32.83
70668;BMP280;58242;51.250;-1.118;2023-07-30T08:36:51;99800.63;;;32.96
70668;BMP280;58242;51.250;-1.118;2023-07-30T08:39:17;99791.31;;;33.55
70668;BMP280;58242;51.250;-1.118;2023-07-30T08:41:43;99797.44;;;34.12
70668;BMP280;58242;51.250;-1.118;2023-07-30T08:44:09;99797.00;;;34.77
70668;BMP280;58242;51.250;-1.118;2023-07-30T08:46:34;99795.44;;;34.95
70668;BMP280;58242;51.250;-1.118;2023-07-30T08:49:00;99803.31;;;35.02
70668;BMP280;58242;51.250;-1.118;2023-07-30T08:51:26;99803.50;;;35.18
70668;BMP280;58242;51.250;-1.118;2023-07-30T08:53:52;99789.03;;;35.14
70668;BMP280;58242;51.250;-1.118;2023-07-30T08:56:18;99789.13;;;35.20
70668;BMP280;58242;51.250;-1.118;2023-07-30T08:58:44;99798.53;;;35.27
70668;BMP280;58242;51.250;-1.118;2023-07-30T09:01:11;99806.44;;;35.40
70668;BMP280;58242;51.250;-1.118;2023-07-30T09:03:39;99808.91;;;35.32
70668;BMP280;58242;51.250;-1.118;2023-07-30T09:06:04;99806.81;;;35.22
70668;BMP280;58242;51.250;-1.118;2023-07-30T09:08:30;99798.84;;;35.10
70668;BMP280;58242;51.250;-1.118;2023-07-30T09:10:57;99806.66;;;34.81
70668;BMP280;58242;51.250;-1.118;2023-07-30T09:13:23;99795.66;;;34.48
70668;BMP280;58242;51.250;-1.118;2023-07-30T09:15:49;99796.00;;;34.16
70668;BMP280;58242;51.250;-1.118;2023-07-30T09:18:17;99812.44;;;33.81
70668;BMP280;58242;51.250;-1.118;2023-07-30T09:20:44;99808.38;;;33.34
70668;BMP280;58242;51.250;-1.118;2023-07-30T09:23:10;99816.88;;;32.88
70668;BMP280;58242;51.250;-1.118;2023-07-30T09:25:36;99807.88;;;32.42
70668;BMP280;58242;51.250;-1.118;2023-07-30T09:28:02;99816.03;;;32.00
70668;BMP280;58242;51.250;-1.118;2023-07-30T09:30:27;99820.63;;;31.62
70668;BMP280;58242;51.250;-1.118;2023-07-30T09:32:55;99822.28;;;31.28
70668;BMP280;58242;51.250;-1.118;2023-07-30T09:35:21;99819.31;;;30.91
70668;BMP280;58242;51.250;-1.118;2023-07-30T09:37:47;99811.69;;;30.60
70668;BMP280;58242;51.250;-1.118;2023-07-30T09:40:14;99826.06;;;30.38
70668;BMP280;58242;51.250;-1.118;2023-07-30T09:42:46;99824.97;;;30.09
70668;BMP280;58242;51.250;-1.118;2023-07-30T09:45:17;99829.72;;;29.70
70668;BMP280;58242;51.250;-1.118;2023-07-30T09:47:51;99824.97;;;29.33
70668;BMP280;58242;51.250;-1.118;2023-07-30T09:50:17;99844.06;;;28.98
70668;BMP280;58242;51.250;-1.118;2023-07-30T09:52:43;99834.75;;;28.62
70668;BMP280;58242;51.250;-1.118;2023-07-30T09:55:09;99831.56;;;28.31
70668;BMP280;58242;51.250;-1.118;2023-07-30T09:57:34;99831.75;;;28.03
70668;BMP280;58242;51.250;-1.118;2023-07-30T10:00:01;99826.63;;;27.80
70668;BMP280;58242;51.250;-1.118;2023-07-30T10:02:28;99824.09;;;27.74
70668;BMP280;58242;51.250;-1.118;2023-07-30T10:04:56;99813.63;;;27.57
70668;BMP280;58242;51.250;-1.118;2023-07-30T10:07:23;99809.34;;;27.56
70668;BMP280;58242;51.250;-1.118;2023-07-30T10:09:51;99817.69;;;27.52
70668;BMP280;58242;51.250;-1.118;2023-07-30T10:12:22;99825.06;;;27.55
70668;BMP280;58242;51.250;-1.118;2023-07-30T10:14:48;99825.66;;;27.63
70668;BMP280;58242;51.250;-1.118;2023-07-30T10:17:16;99825.84;;;27.68
70668;BMP280;58242;51.250;-1.118;2023-07-30T10:19:46;99821.38;;;27.74
70668;BMP280;58242;51.250;-1.118;2023-07-30T10:24:40;99817.22;;;28.15
70668;BMP280;58242;51.250;-1.118;2023-07-30T10:27:07;99824.09;;;28.31
70668;BMP280;58242;51.250;-1.118;2023-07-30T10:29:34;99823.53;;;28.36
70668;BMP280;58242;51.250;-1.118;2023-07-30T10:32:01;99841.16;;;28.26
70668;BMP280;58242;51.250;-1.118;2023-07-30T10:34:44;99829.72;;;28.15
70668;BMP280;58242;51.250;-1.118;2023-07-30T10:37:10;99820.84;;;28.12
70668;BMP280;58242;51.250;-1.118;2023-07-30T10:39:35;99817.28;;;28.23
70668;BMP280;58242;51.250;-1.118;2023-07-30T10:42:01;99816.03;;;28.57
70668;BMP280;58242;51.250;-1.118;2023-07-30T10:44:33;99811.09;;;28.85
70668;BMP280;58242;51.250;-1.118;2023-07-30T10:47:00;99817.31;;;28.98
70668;BMP280;58242;51.250;-1.118;2023-07-30T10:49:26;99814.22;;;28.96
70668;BMP280;58242;51.250;-1.118;2023-07-30T10:51:53;99815.06;;;28.84
70668;BMP280;58242;51.250;-1.118;2023-07-30T10:54:19;99808.09;;;28.71
70668;BMP280;58242;51.250;-1.118;2023-07-30T10:56:44;99822.97;;;28.62
70668;BMP280;58242;51.250;-1.118;2023-07-30T10:59:11;99813.25;;;28.49
70668;BMP280;58242;51.250;-1.118;2023-07-30T11:01:38;99815.91;;;28.40
70668;BMP280;58242;51.250;-1.118;2023-07-30T11:04:18;99807.66;;;28.40
70668;BMP280;58242;51.250;-1.118;2023-07-30T11:06:49;99814.75;;;28.49
70668;BMP280;58242;51.250;-1.118;2023-07-30T11:09:22;99814.97;;;28.55
70668;BMP280;58242;51.250;-1.118;2023-07-30T11:11:49;99813.75;;;28.56
70668;BMP280;58242;51.250;-1.118;2023-07-30T11:14:19;99827.19;;;28.54
70668;BMP280;58242;51.250;-1.118;2023-07-30T11:19:17;99807.09;;;28.45
70668;BMP280;58242;51.250;-1.118;2023-07-30T11:21:51;99817.59;;;28.37
70668;BMP280;58242;51.250;-1.118;2023-07-30T11:24:16;99807.72;;;28.28
70668;BMP280;58242;51.250;-1.118;2023-07-30T11:26:43;99801.81;;;28.17
70668;BMP280;58242;51.250;-1.118;2023-07-30T11:29:19;99799.41;;;28.07
70668;BMP280;58242;51.250;-1.118;2023-07-30T11:31:45;99804.81;;;27.98
70668;BMP280;58242;51.250;-1.118;2023-07-30T11:34:11;99802.63;;;27.93
70668;BMP280;58242;51.250;-1.118;2023-07-30T11:36:37;99803.97;;;27.89
70668;BMP280;58242;51.250;-1.118;2023-07-30T11:39:03;99797.94;;;27.81
70668;BMP280;58242;51.250;-1.118;2023-07-30T11:41:29;99804.63;;;27.80
70668;BMP280;58242;51.250;-1.118;2023-07-30T11:43:55;99795.50;;;27.83
70668;BMP280;58242;51.250;-1.118;2023-07-30T11:46:21;99792.22;;;27.88
70668;BMP280;58242;51.250;-1.118;2023-07-30T11:48:49;99792.28;;;27.97
70668;BMP280;58242;51.250;-1.118;2023-07-30T11:51:28;99789.63;;;28.06
70668;BMP280;58242;51.250;-1.118;2023-07-30T11:53:58;99791.03;;;28.10
70668;BMP280;58242;51.250;-1.118;2023-07-30T11:56:32;99784.66;;;28.13
70668;BMP280;58242;51.250;-1.118;2023-07-30T11:59:04;99779.06;;;28.16
70668;BMP280;58242;51.250;-1.118;2023-07-30T12:01:30;99778.63;;;28.06
70668;BMP280;58242;51.250;-1.118;2023-07-30T12:03:57;99775.09;;;28.17
70668;BMP280;58242;51.250;-1.118;2023-07-30T12:06:23;99781.25;;;28.21
70668;BMP280;58242;51.250;-1.118;2023-07-30T12:08:50;99779.38;;;28.18
70668;BMP280;58242;51.250;-1.118;2023-07-30T12:11:17;99776.19;;;28.20
70668;BMP280;58242;51.250;-1.118;2023-07-30T12:13:44;99777.34;;;28.31
70668;BMP280;58242;51.250;-1.118;2023-07-30T12:16:11;99776.84;;;28.45
70668;BMP280;58242;51.250;-1.118;2023-07-30T12:18:38;99760.16;;;28.60
70668;BMP280;58242;51.250;-1.118;2023-07-30T12:21:04;99760.47;;;28.62
70668;BMP280;58242;51.250;-1.118;2023-07-30T12:23:32;99761.03;;;28.57
70668;BMP280;58242;51.250;-1.118;2023-07-30T12:25:57;99769.38;;;28.45
70668;BMP280;58242;51.250;-1.118;2023-07-30T12:28:22;99775.69;;;28.33
70668;BMP280;58242;51.250;-1.118;2023-07-30T12:30:48;99776.94;;;28.20
70668;BMP280;58242;51.250;-1.118;2023-07-30T12:33:13;99782.38;;;28.12
70668;BMP280;58242;51.250;-1.118;2023-07-30T12:35:38;99775.09;;;28.05
70668;BMP280;58242;51.250;-1.118;2023-07-30T12:38:04;99778.63;;;28.06
70668;BMP280;58242;51.250;-1.118;2023-07-30T12:40:29;99771.28;;;28.15
70668;BMP280;58242;51.250;-1.118;2023-07-30T12:43:00;99782.78;;;28.22
70668;BMP280;58242;51.250;-1.118;2023-07-30T12:45:25;99780.03;;;28.22
70668;BMP280;58242;51.250;-1.118;2023-07-30T12:47:51;99779.69;;;28.20
70668;BMP280;58242;51.250;-1.118;2023-07-30T12:50:16;99782.66;;;28.14
70668;BMP280;58242;51.250;-1.118;2023-07-30T12:52:42;99784.91;;;28.06
70668;BMP280;58242;51.250;-1.118;2023-07-30T12:55:07;99786.22;;;28.02
70668;BMP280;58242;51.250;-1.118;2023-07-30T12:57:32;99780.63;;;27.93
70668;BMP280;58242;51.250;-1.118;2023-07-30T12:59:58;99779.47;;;27.82
70668;BMP280;58242;51.250;-1.118;2023-07-30T13:02:23;99782.25;;;27.70
70668;BMP280;58242;51.250;-1.118;2023-07-30T13:04:48;99780.03;;;27.53
70668;BMP280;58242;51.250;-1.118;2023-07-30T13:07:14;99780.69;;;27.45
70668;BMP280;58242;51.250;-1.118;2023-07-30T13:09:39;99772.69;;;27.38
70668;BMP280;58242;51.250;-1.118;2023-07-30T13:12:04;99759.50;;;27.33
70668;BMP280;58242;51.250;-1.118;2023-07-30T13:14:30;99765.44;;;27.31
70668;BMP280;58242;51.250;-1.118;2023-07-30T13:16:55;99766.34;;;27.28
70668;BMP280;58242;51.250;-1.118;2023-07-30T13:19:20;99766.00;;;27.27
70668;BMP280;58242;51.250;-1.118;2023-07-30T13:21:46;99763.00;;;27.21
70668;BMP280;58242;51.250;-1.118;2023-07-30T13:24:11;99756.91;;;27.17
70668;BMP280;58242;51.250;-1.118;2023-07-30T13:26:36;99757.63;;;27.18
70668;BMP280;58242;51.250;-1.118;2023-07-30T13:29:03;99775.44;;;27.13
70668;BMP280;58242;51.250;-1.118;2023-07-30T13:31:28;99781.00;;;26.98
70668;BMP280;58242;51.250;-1.118;2023-07-30T13:33:54;99772.22;;;26.91
70668;BMP280;58242;51.250;-1.118;2023-07-30T13:36:19;99780.97;;;26.86
70668;BMP280;58242;51.250;-1.118;2023-07-30T13:38:44;99776.78;;;26.81
70668;BMP280;58242;51.250;-1.118;2023-07-30T13:41:10;99787.09;;;26.77
70668;BMP280;58242;51.250;-1.118;2023-07-30T13:43:35;99790.72;;;26.75
70668;BMP280;58242;51.250;-1.118;2023-07-30T13:46:00;99789.69;;;26.69
70668;BMP280;58242;51.250;-1.118;2023-07-30T13:48:26;99784.00;;;26.63
70668;BMP280;58242;51.250;-1.118;2023-07-30T13:50:52;99778.38;;;26.55
70668;BMP280;58242;51.250;-1.118;2023-07-30T13:53:17;99783.28;;;26.47
70668;BMP280;58242;51.250;-1.118;2023-07-30T13:55:43;99778.19;;;26.34